Time;durP1;ratioP1;P1;durP2;ratioP2;P2;SDS_P1;SDS_P2;PMS_P1;PMS_P2;Temp;Humidity;BMP_temperature;BMP_pressure;BME280_temperature;BME280_humidity;BME280_pressure;Samples;Min_cycle;Max_cycle;Signal;HPM_P1;HPM_P2
2021/09/28 01:26:23;;;;;;;;;2.00;2.00;;;;;16.47;91.13;101611.31;5073631;28;45778;-87
2021/09/28 01:32:11;;;;;;;;;4.75;3.75;;;;;16.48;90.81;101609.50;5077355;28;46095;-84
2021/09/28 01:34:37;;;;;;;;;3.50;3.00;;;;;16.46;90.84;101609.66;5079901;27;46163;-88
2021/09/28 01:37:02;;;;;;;;;4.50;3.00;;;;;16.35;90.83;101594.63;5080121;28;45613;-86
2021/09/28 01:39:28;;;;;;;;;3.00;3.00;;;;;16.45;90.62;101609.75;5079892;27;45818;-88
2021/09/28 01:41:53;;;;;;;;;2.00;2.00;;;;;16.36;90.99;101596.28;5078971;27;47404;-87
2021/09/28 01:47:40;;;;;;;;;3.00;2.75;;;;;16.30;91.01;101595.97;5089477;28;45522;-85
2021/09/28 01:50:06;;;;;;;;;3.00;2.00;;;;;16.36;90.80;101604.22;5090443;27;45606;-80
2021/09/28 01:52:36;;;;;;;;;0.00;0.00;;;;;16.34;90.63;101600.88;5090451;27;46301;-82
2021/09/28 01:55:06;;;;;;;;;3.00;3.00;;;;;16.33;90.63;101595.72;5088252;27;45615;-87
2021/09/28 01:57:31;;;;;;;;;4.00;2.25;;;;;16.29;90.67;101589.81;5081416;27;45603;-86
2021/09/28 02:03:18;;;;;;;;;3.75;3.00;;;;;16.29;90.45;101596.91;5080687;28;46074;-83
2021/09/28 02:05:44;;;;;;;;;3.75;3.00;;;;;16.29;90.46;101596.91;5079065;27;45639;-89
2021/09/28 02:08:10;;;;;;;;;2.25;2.25;;;;;16.27;90.47;101591.75;5080996;27;45690;-88
2021/09/28 02:10:35;;;;;;;;;3.50;2.25;;;;;16.26;90.32;101587.41;5080591;28;45757;-90
2021/09/28 02:13:02;;;;;;;;;3.00;2.00;;;;;16.23;90.47;101577.09;5079141;27;46557;-89
2021/09/28 02:15:27;;;;;;;;;3.75;2.75;;;;;16.06;90.64;101545.00;5080853;27;45514;-89
2021/09/28 02:17:53;;;;;;;;;2.75;2.00;;;;;16.18;90.52;101567.84;5076755;28;45643;-89
2021/09/28 02:20:19;;;;;;;;;4.00;3.00;;;;;16.10;90.55;101557.00;5077023;28;45981;-86
2021/09/28 02:22:44;;;;;;;;;5.50;2.00;;;;;16.23;90.51;101574.44;5078496;27;46431;-83
2021/09/28 02:25:13;;;;;;;;;2.00;2.00;;;;;16.00;90.72;101534.91;5079243;28;45572;-82
2021/09/28 02:27:39;;;;;;;;;2.00;2.00;;;;;16.21;90.37;101573.72;5082324;27;45277;-83
2021/09/28 02:33:27;;;;;;;;;2.50;2.00;;;;;16.10;90.68;101554.38;5086264;28;46056;-89
2021/09/28 02:35:52;;;;;;;;;3.50;3.00;;;;;16.17;90.51;101560.88;5085004;27;45898;-86
2021/09/28 02:38:18;;;;;;;;;3.00;2.00;;;;;16.14;90.23;101564.56;5084135;27;45575;-84
2021/09/28 02:40:44;;;;;;;;;3.00;3.00;;;;;16.13;90.38;101565.56;5088388;27;45594;-84
2021/09/28 02:43:09;;;;;;;;;2.50;2.50;;;;;16.07;90.28;101559.91;5087728;28;46536;-86
2021/09/28 02:45:35;;;;;;;;;3.00;2.00;;;;;15.99;90.42;101535.88;5086270;27;45613;-89
2021/09/28 02:48:00;;;;;;;;;3.25;3.00;;;;;16.12;90.24;101552.47;5085587;28;45638;-91
2021/09/28 02:50:26;;;;;;;;;2.25;2.25;;;;;16.12;90.51;101549.81;5084884;27;45596;-89
2021/09/28 02:52:51;;;;;;;;;3.25;3.00;;;;;16.00;90.39;101525.19;5076964;28;46528;-89
2021/09/28 02:55:17;;;;;;;;;3.75;3.75;;;;;16.09;90.38;101544.75;5078065;27;45687;-89
2021/09/28 02:57:42;;;;;;;;;3.50;3.50;;;;;16.10;90.44;101542.00;5077782;27;45638;-90
2021/09/28 03:03:29;;;;;;;;;4.00;3.00;;;;;16.05;90.22;101548.59;5075867;28;46124;-85
2021/09/28 03:05:54;;;;;;;;;4.00;3.00;;;;;15.99;90.38;101542.00;5076095;28;45575;-84
2021/09/28 03:08:19;;;;;;;;;4.00;3.75;;;;;16.04;90.54;101552.19;5076074;27;45593;-80
2021/09/28 03:10:45;;;;;;;;;4.50;4.00;;;;;16.01;90.51;101552.47;5075901;27;45758;-80
2021/09/28 03:13:12;;;;;;;;;4.25;3.50;;;;;16.01;90.42;101553.31;5076137;27;45670;-89
2021/09/28 03:18:59;;;;;;;;;3.00;3.00;;;;;15.90;90.49;101535.66;5074932;28;45668;-83
2021/09/28 03:21:25;;;;;;;;;3.00;2.25;;;;;15.83;90.60;101523.88;5075954;27;45685;-84
2021/09/28 03:23:50;;;;;;;;;4.25;3.25;;;;;15.95;90.53;101556.41;5075912;28;45447;-79
2021/09/28 03:26:16;;;;;;;;;3.00;3.00;;;;;15.92;90.49;101543.47;5075579;27;45760;-86
2021/09/28 03:28:41;;;;;;;;;3.00;2.50;;;;;15.92;90.07;101546.91;5075354;27;45521;-78
2021/09/28 03:31:07;;;;;;;;;3.00;3.00;;;;;15.85;90.42;101534.31;5076042;27;45911;-80
2021/09/28 03:33:32;;;;;;;;;3.00;3.00;;;;;15.91;89.99;101552.34;5074324;28;46950;-85
2021/09/28 03:35:58;;;;;;;;;2.00;2.00;;;;;15.74;90.43;101527.22;5076151;28;45678;-82
2021/09/28 03:38:24;;;;;;;;;3.75;3.00;;;;;15.75;90.14;101517.50;5075825;28;45633;-86
2021/09/28 03:40:49;;;;;;;;;4.00;4.00;;;;;15.80;90.05;101520.63;5078338;27;45505;-80
2021/09/28 03:43:14;;;;;;;;;4.75;2.75;;;;;15.87;90.20;101545.63;5077658;27;45584;-83
2021/09/28 03:49:02;;;;;;;;;3.00;3.00;;;;;15.83;90.16;101544.16;5075752;28;45528;-81
2021/09/28 03:51:28;;;;;;;;;3.00;3.00;;;;;15.81;90.31;101541.66;5076816;28;45542;-85
2021/09/28 03:53:53;;;;;;;;;3.00;2.75;;;;;15.78;90.06;101528.66;5076661;27;46815;-83
2021/09/28 03:56:19;;;;;;;;;4.00;3.00;;;;;15.76;90.09;101533.22;5079176;27;46008;-82
2021/09/28 03:58:45;;;;;;;;;4.00;3.00;;;;;15.67;90.12;101518.09;5080612;27;45592;-84
2021/09/28 04:04:33;;;;;;;;;4.00;4.00;;;;;15.69;90.01;101533.84;5080669;28;46157;-82
2021/09/28 04:06:59;;;;;;;;;4.00;4.00;;;;;15.69;90.06;101547.03;5080745;27;45465;-79
2021/09/28 04:09:25;;;;;;;;;4.00;3.50;;;;;15.67;90.11;101548.94;5080528;27;45438;-81
2021/09/28 04:11:50;;;;;;;;;3.00;3.00;;;;;15.65;90.08;101543.81;5080437;27;45535;-85
2021/09/28 04:14:16;;;;;;;;;5.00;4.00;;;;;15.61;89.96;101549.44;5075521;27;46864;-81
2021/09/28 04:16:42;;;;;;;;;4.00;3.00;;;;;15.55;89.94;101542.00;5075436;28;45740;-81
2021/09/28 04:19:07;;;;;;;;;4.00;3.25;;;;;15.53;90.00;101550.03;5074971;27;45644;-78
2021/09/28 04:21:34;;;;;;;;;4.00;4.00;;;;;15.54;89.88;101554.38;5074173;28;45617;-88
2021/09/28 04:23:59;;;;;;;;;3.75;3.75;;;;;15.47;89.88;101546.03;5075756;27;45625;-79
2021/09/28 04:26:25;;;;;;;;;3.75;3.00;;;;;15.44;90.00;101546.25;5077049;27;46043;-79
2021/09/28 04:28:50;;;;;;;;;4.00;4.00;;;;;15.45;89.88;101549.72;5077399;28;45682;-82
2021/09/28 04:34:38;;;;;;;;;3.00;3.00;;;;;15.44;89.85;101546.25;5081879;28;45723;-87
2021/09/28 04:37:04;;;;;;;;;3.00;3.00;;;;;15.42;89.78;101542.91;5082689;27;45877;-85
2021/09/28 04:39:30;;;;;;;;;3.25;2.25;;;;;15.38;89.72;101540.63;5082140;27;45570;-83
2021/09/28 04:41:55;;;;;;;;;4.00;4.00;;;;;15.40;89.75;101552.72;5082717;28;45549;-83
2021/09/28 04:44:21;;;;;;;;;1.75;1.00;;;;;15.28;89.83;101521.13;5083320;27;45655;-83
2021/09/28 04:46:50;;;;;;;;;4.00;3.75;;;;;15.34;89.96;101536.50;5087605;27;45463;-91
2021/09/28 04:49:18;;;;;;;;;3.00;3.00;;;;;15.11;89.66;101498.66;5086035;27;45871;-92
2021/09/28 04:51:43;;;;;;;;;4.00;3.00;;;;;15.07;89.60;101500.69;5085430;27;45600;-90
2021/09/28 04:54:12;;;;;;;;;3.00;3.00;;;;;15.21;89.71;101526.06;5085329;27;45638;-94
2021/09/28 04:56:38;;;;;;;;;3.00;3.00;;;;;15.33;89.59;101548.84;5080761;27;47695;-90
2021/09/28 04:59:04;;;;;;;;;4.25;3.50;;;;;14.82;89.50;101470.97;5079061;27;45569;-93
2021/09/28 05:04:59;;;;;;;;;4.00;4.00;;;;;14.98;89.38;101503.19;5080582;28;45579;-93
2021/09/28 05:07:26;;;;;;;;;5.00;4.50;;;;;15.15;89.44;101526.50;5078987;28;46090;-92
2021/09/28 05:09:52;;;;;;;;;4.75;4.00;;;;;15.00;89.51;101504.75;5095420;27;45588;-91
2021/09/28 05:12:21;;;;;;;;;3.00;3.00;;;;;14.97;89.26;101512.88;5079609;28;45760;-89
2021/09/28 05:14:46;;;;;;;;;6.50;4.00;;;;;14.85;89.19;101497.13;5080862;27;46898;-89
2021/09/28 05:17:12;;;;;;;;;3.75;3.00;;;;;15.09;89.53;101537.53;5077928;28;46271;-86
2021/09/28 05:19:37;;;;;;;;;4.75;4.00;;;;;15.21;89.17;101560.38;5079557;27;45571;-86
2021/09/28 05:22:03;;;;;;;;;3.00;3.00;;;;;15.21;89.19;101564.81;5080388;28;45718;-82
2021/09/28 05:24:29;;;;;;;;;3.75;3.75;;;;;15.20;89.36;101557.84;5078781;27;47185;-90
2021/09/28 05:26:54;;;;;;;;;2.00;2.00;;;;;15.19;89.25;101564.06;5079111;27;46323;-87
2021/09/28 05:29:19;;;;;;;;;4.00;3.00;;;;;14.99;89.21;101537.38;5078543;27;45550;-85
2021/09/28 05:35:08;;;;;;;;;2.75;2.75;;;;;15.07;89.43;101553.47;5078331;28;45777;-84
2021/09/28 05:37:34;;;;;;;;;3.00;3.00;;;;;15.05;89.32;101539.56;5078345;28;46369;-91
2021/09/28 05:40:00;;;;;;;;;4.25;3.00;;;;;15.11;89.09;101536.44;5077718;27;45715;-87
2021/09/28 05:42:26;;;;;;;;;3.00;2.00;;;;;15.10;89.13;101531.28;5078879;27;45624;-84
2021/09/28 05:44:52;;;;;;;;;3.00;3.00;;;;;15.03;89.40;101523.00;5082194;27;46194;-84
2021/09/28 05:47:19;;;;;;;;;3.00;2.50;;;;;15.08;89.01;101526.13;5082188;27;45906;-85
2021/09/28 05:49:44;;;;;;;;;2.25;1.75;;;;;15.06;89.11;101517.47;5060290;28;45594;-85
2021/09/28 05:52:13;;;;;;;;;2.00;2.00;;;;;15.07;89.21;101513.88;5078447;27;45781;-77
2021/09/28 05:54:48;;;;;;;;;4.25;3.00;;;;;15.07;89.24;101513.03;5077947;27;45596;-81
2021/09/28 05:57:33;;;;;;;;;3.75;2.50;;;;;15.00;89.04;101507.41;5077097;27;46453;-77
2021/09/28 05:59:59;;;;;;;;;2.00;2.00;;;;;15.10;88.87;101531.28;5081030;28;45620;-90
2021/09/28 06:02:25;;;;;;;;;3.00;3.00;;;;;15.11;88.88;101525.06;5080304;28;45874;-88
2021/09/28 06:04:50;;;;;;;;;4.50;3.50;;;;;15.12;89.05;101532.00;5080656;27;46354;-87
2021/09/28 06:07:17;;;;;;;;;3.75;2.50;;;;;15.10;88.72;101526.03;5078977;27;46159;-87
2021/09/28 06:09:44;;;;;;;;;4.00;3.00;;;;;15.08;88.92;101525.28;5079043;27;45794;-86
2021/09/28 06:12:11;;;;;;;;;3.75;3.75;;;;;15.08;88.92;101527.91;5078916;27;45598;-91
2021/09/28 06:14:37;;;;;;;;;3.50;3.00;;;;;15.13;88.75;101534.53;5078922;27;45643;-90
2021/09/28 06:20:24;;;;;;;;;3.25;2.00;;;;;15.11;88.69;101531.16;5082480;28;45562;-85
2021/09/28 06:22:49;;;;;;;;;2.00;2.00;;;;;15.11;88.44;101533.78;5081358;27;45506;-86
2021/09/28 06:25:15;;;;;;;;;4.50;3.50;;;;;15.03;88.86;101523.00;5080873;27;47082;-80
2021/09/28 06:27:40;;;;;;;;;6.25;4.00;;;;;15.16;88.46;101543.19;5077645;27;46054;-83
2021/09/28 06:36:12;;;;;;;;;52.25;40.50;;;;;15.19;88.42;101553.50;5075875;28;45976;-80
2021/09/28 06:38:37;;;;;;;;;9.75;6.25;;;;;15.20;88.38;101548.13;5075295;27;46462;-80
2021/09/28 06:41:03;;;;;;;;;8.50;6.00;;;;;15.11;88.09;101527.72;5075572;28;45652;-80
2021/09/28 06:43:28;;;;;;;;;30.50;25.50;;;;;15.21;88.29;101539.25;5075820;27;45544;-77
2021/09/28 06:45:54;;;;;;;;;5.75;4.00;;;;;15.25;88.31;101543.34;5075891;27;46355;-81
2021/09/28 06:48:19;;;;;;;;;4.00;4.00;;;;;15.26;88.42;101547.66;5077245;27;46293;-80
2021/09/28 06:50:46;;;;;;;;;5.00;5.00;;;;;15.29;88.23;101542.13;5079916;27;45840;-79
2021/09/28 06:55:54;;;;;;;;;9.25;6.00;;;;;15.32;88.24;101528.72;5294188;22;46482;-74
2021/09/28 06:58:19;;;;;;;;;5.00;5.00;;;;;15.34;88.10;101539.13;5019108;28;46200;-78
2021/09/28 07:00:44;;;;;;;;;4.75;4.00;;;;;15.33;88.07;101525.09;5043715;28;45854;-77
2021/09/28 07:03:10;;;;;;;;;6.75;6.00;;;;;15.24;88.17;101514.41;5045331;28;45858;-77
2021/09/28 07:05:36;;;;;;;;;6.25;4.25;;;;;15.35;87.98;101536.38;5028804;28;45987;-76
2021/09/28 07:08:01;;;;;;;;;5.00;5.00;;;;;15.36;87.94;101531.97;5038762;28;45925;-77
2021/09/28 07:10:28;;;;;;;;;5.00;5.00;;;;;15.35;87.87;101524.97;5029850;28;46628;-76
2021/09/28 07:12:54;;;;;;;;;5.00;4.50;;;;;15.38;87.94;101527.41;5041860;28;46141;-77
2021/09/28 07:15:19;;;;;;;;;4.00;4.00;;;;;15.40;88.17;101530.75;5053387;28;46548;-75
2021/09/28 07:17:44;;;;;;;;;4.50;4.50;;;;;15.42;88.02;101534.13;5046457;28;47120;-74
2021/09/28 07:20:13;;;;;;;;;6.00;5.00;;;;;15.40;87.90;101534.25;5048038;28;46145;-74
2021/09/28 07:22:38;;;;;;;;;4.00;3.00;;;;;15.41;87.89;101527.16;5050301;28;45956;-75
2021/09/28 07:25:04;;;;;;;;;6.00;4.25;;;;;15.41;88.05;101535.09;5050628;28;47110;-75
2021/09/28 07:27:30;;;;;;;;;7.00;5.00;;;;;15.46;87.91;101530.28;5047357;28;46002;-75
2021/09/28 07:29:55;;;;;;;;;4.00;3.75;;;;;15.46;87.90;101530.28;5042624;28;45840;-77
2021/09/28 07:32:22;;;;;;;;;20.50;20.50;;;;;15.49;87.72;101530.06;5050249;28;45898;-77
2021/09/28 07:34:47;;;;;;;;;8.25;6.00;;;;;15.49;87.66;101532.72;5048114;28;46479;-77
2021/09/28 07:37:13;;;;;;;;;7.50;7.00;;;;;15.50;87.58;101523.81;5050460;28;46192;-77
2021/09/28 07:39:39;;;;;;;;;4.75;4.50;;;;;15.44;87.78;101511.91;5033140;28;46262;-77
2021/09/28 07:42:05;;;;;;;;;5.75;4.25;;;;;15.44;87.39;101516.34;5034672;28;45666;-77
2021/09/28 07:44:31;;;;;;;;;5.00;3.50;;;;;15.51;87.98;101526.38;5039259;28;47124;-76
2021/09/28 07:46:58;;;;;;;;;6.50;5.50;;;;;15.52;87.64;101519.28;5048894;28;47142;-76
2021/09/28 07:49:26;;;;;;;;;5.00;5.00;;;;;15.55;87.24;101531.44;5035339;28;46062;-75
2021/09/28 07:51:53;;;;;;;;;5.25;5.25;;;;;15.57;87.30;101529.50;5051600;28;45876;-77
2021/09/28 07:54:19;;;;;;;;;5.25;4.00;;;;;15.58;87.42;101532.03;5054564;28;45698;-77
2021/09/28 07:56:44;;;;;;;;;5.75;5.50;;;;;15.58;87.38;101529.38;5040992;28;46215;-76
2021/09/28 07:59:10;;;;;;;;;6.00;6.00;;;;;15.56;87.47;101522.53;5032020;28;45740;-76
2021/09/28 08:01:36;;;;;;;;;4.25;2.50;;;;;15.53;87.38;101524.47;5039437;28;45636;-75
2021/09/28 08:04:03;;;;;;;;;6.50;5.50;;;;;15.61;87.13;101526.50;5047525;28;47500;-76
2021/09/28 08:06:29;;;;;;;;;8.75;7.25;;;;;15.62;87.22;101528.19;5031034;28;46649;-76
2021/09/28 08:08:54;;;;;;;;;12.00;8.75;;;;;15.65;86.95;101522.69;5023007;28;45770;-76
2021/09/28 08:11:20;;;;;;;;;8.00;6.00;;;;;15.70;87.09;101527.59;5048262;28;45876;-75
2021/09/28 08:13:45;;;;;;;;;6.25;5.75;;;;;15.71;87.29;101521.38;5040969;28;45708;-77
2021/09/28 08:16:11;;;;;;;;;6.75;6.00;;;;;15.72;87.04;101517.72;5038270;28;45787;-76
2021/09/28 08:18:36;;;;;;;;;7.25;6.25;;;;;15.77;86.85;101534.06;5039112;28;45695;-74
2021/09/28 08:21:02;;;;;;;;;8.00;6.25;;;;;15.75;87.07;101528.94;5041346;28;45811;-77
2021/09/28 08:23:28;;;;;;;;;5.25;4.25;;;;;15.82;86.92;101540.69;5037311;28;46362;-77
2021/09/28 08:31:05;;;;;;;;;7.75;6.75;;;;;15.90;86.86;101535.66;5041453;28;45780;-76
2021/09/28 08:33:32;;;;;;;;;5.50;5.00;;;;;15.91;86.68;101533.84;5050886;28;45647;-77
2021/09/28 08:35:58;;;;;;;;;6.50;5.25;;;;;15.99;86.51;101535.88;5048223;28;45650;-76
2021/09/28 08:38:25;;;;;;;;;7.00;6.75;;;;;16.02;86.32;101536.50;5044335;28;45801;-76
2021/09/28 08:40:51;;;;;;;;;7.75;7.25;;;;;16.00;86.43;101530.47;5048866;28;45957;-76
2021/09/28 08:43:17;;;;;;;;;7.00;7.00;;;;;16.00;86.78;101527.81;5038360;28;45727;-76
2021/09/28 08:45:43;;;;;;;;;8.25;7.75;;;;;16.15;86.49;101547.75;5049749;28;45736;-76
2021/09/28 08:48:16;;;;;;;;;8.00;7.00;;;;;16.17;86.46;101542.34;5040682;28;45656;-76
2021/09/28 08:50:46;;;;;;;;;7.25;7.00;;;;;16.25;86.38;101543.41;5041797;28;45722;-76
2021/09/28 08:53:17;;;;;;;;;9.00;9.00;;;;;16.29;86.53;101544.88;5046352;28;46471;-76
2021/09/28 08:55:43;;;;;;;;;8.25;8.25;;;;;16.34;86.21;101544.50;5051065;28;46121;-75
2021/09/28 08:58:21;;;;;;;;;7.50;7.00;;;;;16.38;86.15;101545.94;5042354;28;45637;-77
2021/09/28 09:00:48;;;;;;;;;8.25;7.00;;;;;16.43;86.22;101546.41;5046566;28;45932;-77
2021/09/28 09:03:27;;;;;;;;;10.00;10.00;;;;;16.48;86.19;101546.84;5044542;28;46335;-76
2021/09/28 09:05:52;;;;;;;;;5.00;5.00;;;;;16.49;86.22;101540.63;5042398;28;46476;-76
2021/09/28 09:08:24;;;;;;;;;7.75;7.50;;;;;16.56;85.81;101544.44;5041633;28;45713;-76
2021/09/28 09:11:08;;;;;;;;;6.75;5.25;;;;;16.60;86.01;101545.91;5043176;28;45826;-77
2021/09/28 09:13:37;;;;;;;;;9.00;7.75;;;;;16.65;85.84;101535.78;5043080;28;47686;-76
2021/09/28 09:16:04;;;;;;;;;8.75;7.75;;;;;16.71;86.09;101537.94;5036342;28;46212;-77
2021/09/28 09:18:29;;;;;;;;;8.00;7.00;;;;;16.74;86.12;101536.81;5040918;28;45746;-77
2021/09/28 09:20:59;;;;;;;;;7.50;6.25;;;;;16.77;85.64;101534.78;5049844;28;46804;-77
2021/09/28 09:23:32;;;;;;;;;6.75;6.25;;;;;16.84;85.83;101534.28;5047261;28;46392;-77
2021/09/28 09:26:17;;;;;;;;;6.25;5.75;;;;;16.87;85.66;101534.88;5046538;28;47099;-77
2021/09/28 09:28:57;;;;;;;;;6.25;6.25;;;;;16.92;85.71;101522.09;5042228;28;45793;-76
2021/09/28 09:31:34;;;;;;;;;7.00;5.50;;;;;16.95;85.79;101526.31;5048788;28;46331;-77
2021/09/28 09:34:16;;;;;;;;;5.25;4.50;;;;;17.00;85.32;101522.31;5040824;28;46389;-76
2021/09/28 09:37:03;;;;;;;;;5.00;5.00;;;;;16.95;85.80;101499.81;5046585;28;46985;-76
2021/09/28 09:39:50;;;;;;;;;4.50;4.50;;;;;17.08;85.63;101511.91;5046442;28;46314;-76
2021/09/28 09:42:15;;;;;;;;;4.75;4.00;;;;;17.11;85.24;101508.97;5042934;28;45672;-74
2021/09/28 09:44:43;;;;;;;;;5.25;4.00;;;;;17.17;84.99;101516.41;5034763;28;47529;-76
2021/09/28 09:47:33;;;;;;;;;3.50;3.00;;;;;17.23;85.37;101511.56;5050026;28;47058;-76
2021/09/28 09:50:19;;;;;;;;;4.50;4.00;;;;;17.28;nan;101502.25;5028297;28;45704;-76
2021/09/28 09:52:56;;;;;;;;;4.00;3.75;;;;;17.34;84.80;101493.78;5042565;28;45788;-76
2021/09/28 09:55:27;;;;;;;;;6.50;5.50;;;;;17.40;84.81;101495.91;5042420;28;45878;-76
2021/09/28 09:57:53;;;;;;;;;4.50;3.25;;;;;17.43;84.80;101495.69;5049327;28;45961;-77
2021/09/28 10:00:20;;;;;;;;;5.75;3.00;;;;;17.48;84.49;101482.03;5049998;28;45742;-75
2021/09/28 10:02:50;;;;;;;;;9.00;7.75;;;;;17.56;84.78;101485.69;5048237;28;45735;-76
2021/09/28 10:05:16;;;;;;;;;10.75;9.00;;;;;17.60;84.86;101476.53;5035844;28;47447;-76
2021/09/28 10:07:42;;;;;;;;;3.50;3.50;;;;;17.66;84.32;101475.16;5047587;28;47094;-77
2021/09/28 10:10:14;;;;;;;;;5.50;4.00;;;;;17.75;84.71;101478.81;5055168;28;45692;-77
2021/09/28 10:12:40;;;;;;;;;3.00;2.75;;;;;17.82;84.69;101480.78;5052904;28;45842;-76
2021/09/28 10:15:13;;;;;;;;;4.25;3.75;;;;;17.87;84.08;101483.03;5055365;28;46432;-76
2021/09/28 10:17:43;;;;;;;;;4.00;3.00;;;;;17.90;83.98;101477.47;5054584;28;46380;-76
2021/09/28 10:20:28;;;;;;;;;2.50;2.00;;;;;17.94;83.81;101482.38;5032025;28;45693;-78
2021/09/28 10:22:58;;;;;;;;;3.50;2.25;;;;;17.98;84.24;101478.47;5053794;28;46098;-76
2021/09/28 10:25:35;;;;;;;;;2.50;1.50;;;;;18.01;84.23;101482.69;5053626;28;46543;-75
2021/09/28 10:28:06;;;;;;;;;2.00;2.00;;;;;18.05;83.61;101478.78;5051467;28;46246;-74
2021/09/28 10:30:35;;;;;;;;;2.50;2.25;;;;;18.11;84.02;101488.00;5049081;28;45836;-77
2021/09/28 10:33:22;;;;;;;;;4.50;4.00;;;;;18.15;83.46;101479.63;5048015;28;45545;-75
2021/09/28 10:36:07;;;;;;;;;3.00;2.00;;;;;18.18;83.99;101479.38;5045512;28;47456;-75
2021/09/28 10:38:46;;;;;;;;;5.75;2.50;;;;;18.22;83.29;101485.22;5041148;28;46232;-76
2021/09/28 10:41:33;;;;;;;;;1.00;0.50;;;;;18.25;83.49;101479.63;5046115;28;46227;-77
2021/09/28 10:44:20;;;;;;;;;0.00;0.00;;;;;18.24;82.40;101480.66;5044635;28;46019;-77
2021/09/28 10:46:46;;;;;;;;;1.00;1.00;;;;;18.24;81.91;101478.84;5041049;28;46482;-77
2021/09/28 10:49:32;;;;;;;;;2.00;1.00;;;;;18.18;80.63;101474.06;5040366;28;47122;-78
2021/09/28 10:52:22;;;;;;;;;0.00;0.00;;;;;18.24;78.82;101483.28;5042721;28;45742;-76
2021/09/28 10:55:10;;;;;;;;;1.00;0.00;;;;;18.24;80.52;101483.28;5028141;28;45882;-77
2021/09/28 10:57:54;;;;;;;;;1.00;0.50;;;;;18.25;81.17;101482.28;5045350;28;46496;-75
2021/09/28 11:00:24;;;;;;;;;1.00;0.00;;;;;18.28;80.70;101479.38;5049334;28;47406;-76
2021/09/28 11:02:54;;;;;;;;;0.00;0.00;;;;;18.27;80.67;101478.53;5051213;28;45774;-77
2021/09/28 11:05:31;;;;;;;;;2.00;1.00;;;;;18.32;80.08;101471.00;5046389;28;45687;-77
2021/09/28 11:08:02;;;;;;;;;0.25;0.25;;;;;18.36;78.04;101466.25;5042308;28;45769;-77
2021/09/28 11:10:29;;;;;;;;;0.00;0.00;;;;;18.37;79.03;101462.63;5045415;28;47001;-78
2021/09/28 11:12:54;;;;;;;;;0.25;0.00;;;;;18.39;78.57;101456.22;5042924;28;45657;-77
2021/09/28 11:15:23;;;;;;;;;1.25;0.00;;;;;18.36;78.54;101455.63;5042833;28;45735;-77
2021/09/28 11:17:49;;;;;;;;;2.00;1.00;;;;;18.42;78.66;101455.09;5050743;28;45868;-77
2021/09/28 11:20:29;;;;;;;;;0.00;0.00;;;;;18.44;78.31;101455.81;5048754;28;45681;-78
2021/09/28 11:23:12;;;;;;;;;2.00;0.00;;;;;18.44;78.32;101446.03;5053235;28;46938;-76
2021/09/28 11:25:40;;;;;;;;;1.00;1.00;;;;;18.49;78.79;101455.38;5048748;28;45766;-78
2021/09/28 11:28:05;;;;;;;;;0.75;0.00;;;;;18.50;77.28;101449.94;5050897;28;46478;-78
2021/09/28 11:30:35;;;;;;;;;2.25;1.00;;;;;18.52;77.74;101444.47;5052294;28;47021;-77
2021/09/28 11:33:03;;;;;;;;;0.50;0.50;;;;;18.54;77.88;101434.56;5055722;28;45732;-77
2021/09/28 11:35:29;;;;;;;;;0.25;0.00;;;;;18.53;78.02;101415.16;5049679;28;45465;-77
2021/09/28 11:38:02;;;;;;;;;1.50;0.25;;;;;18.59;78.03;101422.59;5050653;28;46704;-77
2021/09/28 11:40:35;;;;;;;;;0.00;0.00;;;;;18.60;77.55;101415.47;5052342;28;47036;-77
2021/09/28 11:46:28;;;;;;;;;0.50;0.50;;;;;18.70;76.97;101416.28;5054618;28;45612;-76
2021/09/28 11:49:00;;;;;;;;;1.00;0.00;;;;;18.71;77.23;101420.63;5054205;28;46536;-74
2021/09/28 11:51:40;;;;;;;;;0.25;0.00;;;;;18.70;77.83;101414.47;5054485;28;47111;-76
2021/09/28 11:54:12;;;;;;;;;0.25;0.00;;;;;18.69;76.98;101409.28;5054272;28;45717;-76
2021/09/28 11:56:41;;;;;;;;;1.25;0.50;;;;;18.78;77.50;101411.13;5054125;28;45601;-77
2021/09/28 11:59:11;;;;;;;;;1.00;0.00;;;;;18.78;77.05;101408.47;5052878;28;45757;-77
2021/09/28 12:01:39;;;;;;;;;0.25;0.00;;;;;18.74;77.01;101399.09;5052745;28;46687;-77
2021/09/28 12:09:51;;;;;;;;;0.50;0.50;;;;;18.82;76.81;101394.75;5054062;28;46313;-76
2021/09/28 12:12:21;;;;;;;;;0.25;0.00;;;;;18.84;76.07;101391.94;5054191;28;45623;-77
2021/09/28 12:14:57;;;;;;;;;0.00;0.00;;;;;18.85;76.88;101381.19;5054276;28;45861;-75
2021/09/28 12:17:24;;;;;;;;;0.75;0.00;;;;;18.86;76.90;101382.03;5054014;28;45621;-77
2021/09/28 12:19:49;;;;;;;;;1.00;0.00;;;;;18.85;76.75;101380.34;5054329;28;46796;-79
2021/09/28 12:22:37;;;;;;;;;0.00;0.00;;;;;18.85;76.58;101375.03;5054230;28;45706;-77
2021/09/28 12:25:09;;;;;;;;;0.00;0.00;;;;;18.84;76.68;101368.03;5054138;28;45563;-78
2021/09/28 12:27:36;;;;;;;;;0.00;0.00;;;;;18.82;75.58;101359.41;5054039;28;45667;-77
2021/09/28 12:30:09;;;;;;;;;0.00;0.00;;;;;18.79;76.12;101354.34;5054096;28;45570;-77
2021/09/28 12:32:37;;;;;;;;;1.00;0.00;;;;;18.55;76.08;101301.75;5054020;28;45873;-79
2021/09/28 12:35:12;;;;;;;;;0.00;0.00;;;;;18.90;76.17;101353.34;5054077;28;45468;-76
2021/09/28 12:37:46;;;;;;;;;1.75;0.00;;;;;18.91;76.46;101342.59;5053885;28;45486;-77
2021/09/28 12:40:17;;;;;;;;;1.00;1.00;;;;;18.88;76.37;101342.88;5035951;28;45621;-76
2021/09/28 12:42:43;;;;;;;;;1.00;1.00;;;;;18.89;76.08;101333.94;5053867;28;46192;-76
2021/09/28 12:45:14;;;;;;;;;1.00;0.00;;;;;18.78;76.30;101302.25;5053803;28;45869;-76
2021/09/28 12:47:44;;;;;;;;;0.00;0.00;;;;;18.93;76.21;101322.03;5054067;28;45712;-78
2021/09/28 12:50:17;;;;;;;;;0.00;0.00;;;;;19.04;76.51;101332.50;5055631;28;46561;-77
2021/09/28 12:52:43;;;;;;;;;0.00;0.00;;;;;18.86;76.61;101299.69;5057470;28;46556;-76
2021/09/28 12:55:08;;;;;;;;;0.75;0.00;;;;;19.09;76.19;101322.25;5057461;28;45588;-78
2021/09/28 12:57:34;;;;;;;;;0.25;0.00;;;;;18.96;76.10;101299.66;5057068;28;45677;-77
2021/09/28 12:59:59;;;;;;;;;0.00;0.00;;;;;19.08;76.15;101319.75;5058794;28;45564;-77
2021/09/28 13:02:25;;;;;;;;;0.50;0.00;;;;;19.13;76.22;101318.31;5058742;28;46589;-76
2021/09/28 13:04:50;;;;;;;;;1.50;0.25;;;;;19.14;75.13;101317.34;5059103;28;45662;-77
2021/09/28 13:07:16;;;;;;;;;0.50;0.00;;;;;19.14;75.39;101313.84;5057750;28;45593;-77
2021/09/28 13:09:44;;;;;;;;;0.00;0.00;;;;;18.99;75.66;101283.44;5059827;28;45701;-77
2021/09/28 13:12:10;;;;;;;;;0.50;0.00;;;;;18.96;75.57;101270.44;5062176;28;45826;-76
2021/09/28 13:14:35;;;;;;;;;1.00;0.00;;;;;19.13;75.49;101290.91;5062497;28;45803;-78
2021/09/28 13:17:00;;;;;;;;;0.75;0.50;;;;;19.20;76.03;101298.16;5062532;28;45510;-78
2021/09/28 13:19:27;;;;;;;;;0.50;0.50;;;;;19.22;76.03;101298.00;5062196;28;46988;-75
2021/09/28 13:21:53;;;;;;;;;1.00;0.00;;;;;19.23;75.70;101294.34;5061154;28;45860;-77
2021/09/28 13:24:18;;;;;;;;;0.75;0.75;;;;;19.24;75.20;101293.38;5057174;28;45572;-76
2021/09/28 13:26:44;;;;;;;;;0.00;0.00;;;;;19.24;75.29;101296.88;5057040;28;45707;-77
2021/09/28 13:29:09;;;;;;;;;0.00;0.00;;;;;19.27;75.44;101291.25;5038830;28;47335;-76
2021/09/28 13:31:34;;;;;;;;;0.25;0.25;;;;;19.23;75.35;101279.25;5056859;28;45532;-77
2021/09/28 13:34:00;;;;;;;;;0.75;0.50;;;;;19.32;75.62;101293.50;5056817;28;45717;-76
2021/09/28 13:36:25;;;;;;;;;0.00;0.00;;;;;19.35;75.66;101284.38;5057074;28;45517;-77
2021/09/28 13:38:51;;;;;;;;;0.75;0.50;;;;;19.37;75.16;101283.25;5056639;28;45531;-77
2021/09/28 13:41:16;;;;;;;;;0.50;0.50;;;;;19.41;75.28;101294.41;5056673;28;46288;-78
2021/09/28 13:47:04;;;;;;;;;0.75;0.25;;;;;19.43;75.32;101274.69;5056658;28;45674;-78
2021/09/28 13:49:29;;;;;;;;;2.75;1.00;;;;;19.50;75.25;101274.91;5056573;28;46631;-77
2021/09/28 13:51:55;;;;;;;;;1.00;0.25;;;;;19.53;75.13;101267.50;5056609;28;45567;-77
2021/09/28 13:54:20;;;;;;;;;0.00;0.00;;;;;19.55;74.94;101254.88;5055007;28;46353;-78
2021/09/28 13:56:45;;;;;;;;;0.00;0.00;;;;;19.60;74.64;101257.06;5037938;28;45775;-77
2021/09/28 14:02:33;;;;;;;;;1.00;0.00;;;;;19.56;74.61;101243.25;5055329;28;45970;-77
2021/09/28 14:04:59;;;;;;;;;0.50;0.50;;;;;19.63;74.50;101259.44;5056330;28;45692;-77